Time;durP1;ratioP1;P1;durP2;ratioP2;P2;SDS_P1;SDS_P2;PMS_P1;PMS_P2;Temp;Humidity;BMP_temperature;BMP_pressure;BME280_temperature;BME280_humidity;BME280_pressure;Samples;Min_cycle;Max_cycle;Signal;HPM_P1;HPM_P2
2021/12/26 05:06:02;;;;;;;14.58;7.29;;;;;;;-9.13;74.48;99626.22;377870;139;882427;-56
2021/12/26 05:07:05;;;;;;;13.55;6.42;;;;;;;-9.04;73.91;99640.98;370271;142;858968;-57
2021/12/26 05:08:06;;;;;;;13.58;6.18;;;;;;;-8.91;73.10;99637.64;361085;145;857873;-56
2021/12/26 05:09:08;;;;;;;15.69;6.34;;;;;;;-8.78;72.31;99630.13;360799;145;857380;-56
2021/12/26 05:10:12;;;;;;;18.04;7.06;;;;;;;-8.64;71.96;99640.19;370062;143;865028;-55
2021/12/26 05:11:14;;;;;;;14.85;7.05;;;;;;;-8.53;71.92;99634.20;369501;144;858833;-55
2021/12/26 05:12:16;;;;;;;16.14;6.87;;;;;;;-8.44;71.12;99639.80;370178;143;857987;-55
2021/12/26 05:13:18;;;;;;;12.82;5.83;;;;;;;-8.33;71.06;99637.94;371736;143;859221;-55
2021/12/26 05:14:20;;;;;;;15.63;6.55;;;;;;;-8.24;70.43;99637.66;370504;143;864246;-55
2021/12/26 05:15:22;;;;;;;12.65;6.15;;;;;;;-8.14;70.22;99644.99;371487;144;857971;-55
2021/12/26 05:16:24;;;;;;;16.85;6.33;;;;;;;-8.03;69.97;99643.13;362234;144;859851;-56
2021/12/26 05:17:25;;;;;;;17.89;7.41;;;;;;;-7.94;69.86;99640.31;361438;147;859384;-55
2021/12/26 05:18:27;;;;;;;14.57;6.56;;;;;;;-7.87;69.54;99626.50;361576;147;866009;-54
2021/12/26 05:19:29;;;;;;;12.93;6.22;;;;;;;-7.81;69.16;99626.86;359631;147;858039;-53
2021/12/26 05:50:42;;;;;;;18.76;7.61;;;;;;;-8.17;69.42;99659.88;378425;138;882040;-59
2021/12/26 05:51:44;;;;;;;16.63;7.91;;;;;;;-8.13;69.16;99661.80;363006;146;857485;-57
2021/12/26 05:52:46;;;;;;;13.19;6.49;;;;;;;-8.02;68.78;99664.96;372529;143;857433;-58
2021/12/26 05:53:48;;;;;;;17.23;7.21;;;;;;;-7.92;68.48;99664.78;372436;142;857314;-57
2021/12/26 05:54:50;;;;;;;19.77;8.73;;;;;;;-7.87;68.20;99670.08;373081;141;857772;-57
2021/12/26 05:55:52;;;;;;;13.51;7.33;;;;;;;-7.85;68.05;99665.16;371847;143;857455;-56
2021/12/26 05:56:54;;;;;;;17.11;8.36;;;;;;;-7.89;67.35;99669.11;371486;141;857422;-58
2021/12/26 05:57:55;;;;;;;16.12;8.51;;;;;;;-7.93;67.51;99668.07;373426;142;857863;-57
2021/12/26 05:58:57;;;;;;;14.87;7.69;;;;;;;-7.97;67.11;99673.65;370125;141;858208;-58
2021/12/26 06:11:37;;;;;;;14.67;8.29;;;;;;;-7.53;66.05;99679.66;370909;142;881476;-54
2021/12/26 06:12:40;;;;;;;17.81;8.64;;;;;;;-7.54;65.03;99693.00;348791;152;859022;-55
2021/12/26 06:13:41;;;;;;;20.07;8.63;;;;;;;;;;348871;147;857584;-55
2021/12/26 06:14:43;;;;;;;15.95;7.80;;;;;;;;;;363373;146;859041;-55
2021/12/26 06:15:44;;;;;;;19.21;8.34;;;;;;;;;;365597;147;859183;-54
2021/12/26 06:16:46;;;;;;;17.93;8.86;;;;;;;;;;365525;145;863627;-55
2021/12/26 06:17:48;;;;;;;26.31;7.81;;;;;;;;;;362943;145;865208;-56
2021/12/26 06:18:49;;;;;;;20.32;8.43;;;;;;;;;;363367;145;860260;-56
2021/12/26 06:19:51;;;;;;;18.54;8.16;;;;;;;;;;365525;147;865119;-57
2021/12/26 06:20:52;;;;;;;17.79;8.41;;;;;;;;;;362181;146;864271;-59
2021/12/26 06:21:54;;;;;;;15.61;7.88;;;;;;;;;;355530;148;860338;-60
2021/12/26 06:22:56;;;;;;;15.87;8.34;;;;;;;;;;355457;148;857768;-59
2021/12/26 06:23:57;;;;;;;15.03;7.89;;;;;;;;;;355910;150;865247;-59
2021/12/26 06:24:59;;;;;;;19.87;8.69;;;;;;;;;;357099;148;865283;-58
2021/12/26 06:26:00;;;;;;;20.41;8.05;;;;;;;;;;357370;148;865125;-57
2021/12/26 06:27:02;;;;;;;15.76;8.01;;;;;;;;;;352805;149;865144;-58
2021/12/26 06:28:04;;;;;;;16.57;7.95;;;;;;;;;;355657;148;865200;-58
2021/12/26 06:29:05;;;;;;;18.01;8.51;;;;;;;;;;354891;148;859556;-59
2021/12/26 06:30:07;;;;;;;23.68;8.53;;;;;;;;;;355555;148;865806;-59
2021/12/26 06:31:09;;;;;;;20.77;9.39;;;;;;;;;;356370;148;859977;-57
2021/12/26 06:32:11;;;;;;;20.92;9.40;;;;;;;;;;355482;148;859314;-56
2021/12/26 06:33:12;;;;;;;17.52;8.19;;;;;;;;;;355756;148;864804;-56
2021/12/26 06:34:14;;;;;;;21.89;9.62;;;;;;;;;;357794;148;866965;-55
2021/12/26 06:35:15;;;;;;;23.64;9.95;;;;;;;;;;356244;148;859236;-55
2021/12/26 06:36:17;;;;;;;22.18;9.16;;;;;;;;;;355487;148;856562;-56
2021/12/26 06:37:19;;;;;;;32.08;12.90;;;;;;;;;;357774;150;856394;-56
2021/12/26 06:38:20;;;;;;;28.82;11.06;;;;;;;;;;355946;148;865383;-56
2021/12/26 06:39:22;;;;;;;33.60;13.01;;;;;;;;;;355345;148;859467;-56
2021/12/26 06:40:24;;;;;;;29.34;11.49;;;;;;;;;;357919;147;865856;-55
2021/12/26 06:41:26;;;;;;;33.32;12.75;;;;;;;;;;357035;150;856498;-55
2021/12/26 06:42:30;;;;;;;33.97;12.11;;;;;;;;;;355447;149;856685;-56
2021/12/26 06:43:32;;;;;;;26.74;11.92;;;;;;;;;;357481;148;856842;-56
2021/12/26 06:44:33;;;;;;;29.39;11.79;;;;;;;;;;356646;149;857343;-56
2021/12/26 06:45:35;;;;;;;27.70;10.98;;;;;;;;;;358824;150;863875;-55
2021/12/26 06:46:36;;;;;;;24.41;10.66;;;;;;;;;;355426;148;865129;-55
2021/12/26 06:47:38;;;;;;;24.88;9.99;;;;;;;;;;354523;149;864934;-57
2021/12/26 06:48:41;;;;;;;26.95;9.89;;;;;;;;;;356242;150;866659;-56
2021/12/26 06:49:42;;;;;;;24.04;10.40;;;;;;;;;;353158;150;866050;-57
2021/12/26 06:50:45;;;;;;;19.94;10.07;;;;;;;;;;355979;148;857374;-56
2021/12/26 06:51:46;;;;;;;22.58;9.86;;;;;;;;;;360699;148;865818;-56
2021/12/26 06:52:48;;;;;;;22.65;10.04;;;;;;;;;;357620;147;859154;-57
2021/12/26 06:53:50;;;;;;;24.63;9.35;;;;;;;;;;348702;151;866081;-57
2021/12/26 06:54:51;;;;;;;21.59;9.52;;;;;;;;;;355233;149;857540;-56
2021/12/26 06:55:53;;;;;;;21.26;9.06;;;;;;;;;;357263;150;864709;-56
2021/12/26 06:56:54;;;;;;;16.84;8.68;;;;;;;;;;355913;149;864851;-56
2021/12/26 06:57:56;;;;;;;17.33;8.56;;;;;;;;;;355556;148;867286;-57
2021/12/26 06:58:58;;;;;;;18.49;8.22;;;;;;;;;;356684;149;857424;-56
2021/12/26 06:59:59;;;;;;;21.22;8.79;;;;;;;;;;353247;150;857428;-57
2021/12/26 07:01:01;;;;;;;24.99;9.69;;;;;;;;;;355426;148;866564;-57
2021/12/26 08:41:29;;;;;;;15.51;7.50;;;;;;;-5.93;70.65;99697.88;355900;144;870566;-60
2021/12/26 08:42:31;;;;;;;15.83;7.43;;;;;;;-5.74;69.94;99693.03;351639;150;856622;-59
2021/12/26 08:43:33;;;;;;;16.44;7.92;;;;;;;-5.48;69.20;99691.01;354516;150;863979;-60
2021/12/26 08:44:35;;;;;;;13.61;6.03;;;;;;;-5.33;67.64;99685.91;347083;150;864465;-60
2021/12/26 08:45:37;;;;;;;17.79;7.21;;;;;;;-5.10;67.40;99682.83;346772;151;856267;-60
2021/12/26 08:46:39;;;;;;;13.40;6.75;;;;;;;-4.94;66.67;99686.98;347524;152;856266;-58
2021/12/26 08:47:40;;;;;;;13.41;7.03;;;;;;;-4.84;66.21;99681.59;347965;151;856408;-57
2021/12/26 08:48:42;;;;;;;20.16;8.17;;;;;;;-5.14;65.26;99681.80;346140;151;864046;-58
2021/12/26 08:49:44;;;;;;;19.24;8.30;;;;;;;-4.90;65.91;99689.75;350405;151;864011;-57
2021/12/26 08:50:46;;;;;;;25.25;9.27;;;;;;;-4.70;66.36;99687.34;347363;151;863937;-57
2021/12/26 08:51:47;;;;;;;17.39;5.91;;;;;;;-4.62;64.90;99692.78;347229;151;856766;-57
2021/12/26 08:52:49;;;;;;;16.90;7.63;;;;;;;-4.48;65.13;99691.79;346055;152;863917;-58
2021/12/26 08:53:51;;;;;;;9.37;4.94;;;;;;;-4.47;64.26;99691.00;346938;152;856210;-57
2021/12/26 08:54:53;;;;;;;15.76;7.78;;;;;;;-4.35;64.78;99690.70;346201;152;856210;-58
2021/12/26 08:55:55;;;;;;;22.87;9.94;;;;;;;-4.25;64.67;99687.81;346544;152;864423;-58
2021/12/26 08:56:56;;;;;;;22.07;9.69;;;;;;;-4.13;64.47;99679.95;346243;152;863725;-57
2021/12/26 08:57:59;;;;;;;24.21;10.10;;;;;;;-4.06;63.76;99693.77;347040;152;856798;-57
2021/12/26 08:59:00;;;;;;;19.20;9.17;;;;;;;-4.02;63.98;99684.64;344970;152;856623;-58
2021/12/26 09:00:05;;;;;;;20.62;8.73;;;;;;;-4.06;63.74;99690.36;345234;152;856297;-59
2021/12/26 09:01:07;;;;;;;14.89;6.14;;;;;;;;;;345377;152;856554;-59
2021/12/26 09:02:08;;;;;;;21.78;8.63;;;;;;;;;;346064;152;864990;-58
2021/12/26 09:03:10;;;;;;;20.05;8.25;;;;;;;;;;344394;153;863911;-59
2021/12/26 09:04:12;;;;;;;18.84;8.42;;;;;;;;;;345161;152;864434;-58
2021/12/26 09:05:13;;;;;;;20.23;8.21;;;;;;;;;;337741;154;866814;-58
2021/12/26 09:06:15;;;;;;;18.59;7.49;;;;;;;;;;339850;152;856717;-57
2021/12/26 09:07:17;;;;;;;15.16;7.61;;;;;;;;;;344511;153;864462;-56
2021/12/26 09:08:19;;;;;;;13.32;6.31;;;;;;;;;;346498;152;862865;-58
2021/12/26 09:09:21;;;;;;;11.85;5.07;;;;;;;;;;345809;152;864731;-60
2021/12/26 09:10:23;;;;;;;17.82;7.25;;;;;;;;;;343318;153;864061;-59
2021/12/26 09:11:25;;;;;;;15.31;7.46;;;;;;;;;;345991;152;856373;-60
2021/12/26 09:12:27;;;;;;;12.96;6.34;;;;;;;;;;345373;152;857280;-60
2021/12/26 09:13:28;;;;;;;12.74;6.02;;;;;;;;;;345718;152;856107;-57
2021/12/26 09:26:28;;;;;;;11.50;5.42;;;;;;;-3.24;61.76;99686.42;370913;141;875771;-56
2021/12/26 09:27:30;;;;;;;12.19;5.55;;;;;;;-3.37;59.87;99678.30;363046;146;857278;-57
2021/12/26 09:28:36;;;;;;;11.08;5.05;;;;;;;-3.81;59.92;99682.25;364207;146;857329;-57
2021/12/26 09:29:35;;;;;;;6.77;3.46;;;;;;;-3.59;60.83;99684.09;362252;147;865105;-56
2021/12/26 09:30:37;;;;;;;14.67;6.10;;;;;;;;;;371519;144;865406;-57
2021/12/26 09:31:38;;;;;;;12.61;5.71;;;;;;;;;;371107;143;856499;-57
2021/12/26 09:32:40;;;;;;;12.12;5.39;;;;;;;;;;370066;144;864011;-57
2021/12/26 09:33:41;;;;;;;10.55;4.83;;;;;;;;;;371276;144;857050;-56
2021/12/26 09:34:43;;;;;;;10.46;5.30;;;;;;;;;;371003;142;862771;-56
2021/12/26 09:35:45;;;;;;;16.44;6.01;;;;;;;;;;370246;144;858878;-55
2021/12/26 09:36:46;;;;;;;12.97;5.01;;;;;;;;;;371976;142;861476;-57
2021/12/26 09:37:48;;;;;;;11.39;5.44;;;;;;;;;;367691;142;856157;-62
2021/12/26 09:38:49;;;;;;;11.50;5.74;;;;;;;;;;370068;143;862386;-61
2021/12/26 09:39:52;;;;;;;14.94;5.52;;;;;;;;;;369631;143;856412;-61
2021/12/26 09:40:55;;;;;;;10.41;4.30;;;;;;;;;;372010;144;856339;-64
2021/12/26 09:41:56;;;;;;;8.73;4.52;;;;;;;;;;371656;142;856733;-62
2021/12/26 09:42:58;;;;;;;11.84;5.09;;;;;;;;;;369985;143;856441;-63
2021/12/26 09:43:59;;;;;;;6.19;3.56;;;;;;;;;;371685;143;864535;-57
2021/12/26 09:45:01;;;;;;;10.36;5.22;;;;;;;;;;371821;144;856979;-59
2021/12/26 09:46:03;;;;;;;11.12;5.02;;;;;;;;;;371646;143;864022;-59
2021/12/26 09:47:05;;;;;;;10.13;4.18;;;;;;;;;;371243;143;864034;-59
2021/12/26 09:48:07;;;;;;;13.21;3.85;;;;;;;;;;372455;144;863965;-59
2021/12/26 09:49:08;;;;;;;14.55;5.69;;;;;;;;;;370051;144;856239;-59
2021/12/26 09:50:11;;;;;;;9.29;4.47;;;;;;;;;;368762;143;856634;-58
2021/12/26 09:51:14;;;;;;;10.63;4.57;;;;;;;;;;372023;143;856339;-61
2021/12/26 09:52:16;;;;;;;12.31;4.71;;;;;;;;;;370347;144;856412;-58
2021/12/26 09:53:18;;;;;;;5.16;3.35;;;;;;;;;;370443;144;856326;-61
2021/12/26 09:54:19;;;;;;;10.71;4.85;;;;;;;;;;370494;143;864196;-61
2021/12/26 09:55:21;;;;;;;11.86;5.06;;;;;;;;;;369914;143;856932;-61
2021/12/26 09:56:22;;;;;;;7.95;4.22;;;;;;;;;;370181;144;864110;-60
2021/12/26 09:57:24;;;;;;;8.60;4.21;;;;;;;;;;371526;144;857096;-59
2021/12/26 09:58:25;;;;;;;12.84;4.48;;;;;;;;;;371895;142;856537;-61
2021/12/26 09:59:27;;;;;;;12.14;4.44;;;;;;;;;;371973;144;856583;-60
2021/12/26 10:00:33;;;;;;;5.06;3.82;;;;;;;;;;371235;144;856184;-60
2021/12/26 10:01:37;;;;;;;11.27;4.75;;;;;;;;;;371836;143;856255;-60
2021/12/26 10:02:38;;;;;;;10.88;5.17;;;;;;;;;;370278;144;857153;-60
2021/12/26 10:03:40;;;;;;;9.52;4.89;;;;;;;;;;368888;144;859660;-61
2021/12/26 10:04:42;;;;;;;8.69;4.54;;;;;;;;;;364185;147;857253;-59
2021/12/26 10:06:02;;;;;;;11.87;5.80;;;;;;;;;;364791;143;857414;-59
2021/12/26 10:07:05;;;;;;;14.11;5.78;;;;;;;;;;370873;142;857175;-62
2021/12/26 10:08:07;;;;;;;9.89;5.27;;;;;;;;;;367342;143;865956;-58
2021/12/26 10:09:08;;;;;;;10.19;5.12;;;;;;;;;;370449;143;864842;-57
2021/12/26 10:10:10;;;;;;;12.51;5.47;;;;;;;;;;368422;142;859128;-57
2021/12/26 10:11:14;;;;;;;9.58;4.22;;;;;;;;;;370613;144;857170;-58
2021/12/26 10:12:16;;;;;;;12.70;5.06;;;;;;;;;;370976;143;861445;-59
2021/12/26 10:13:37;;;;;;;13.32;5.81;;;;;;;;;;370545;142;863949;-59
2021/12/26 10:14:38;;;;;;;9.91;5.04;;;;;;;;;;370869;144;856822;-59
2021/12/26 10:15:45;;;;;;;9.37;5.09;;;;;;;;;;372005;143;857432;-58
2021/12/26 10:16:51;;;;;;;10.21;4.85;;;;;;;;;;368716;143;856640;-59
2021/12/26 10:17:52;;;;;;;8.61;4.53;;;;;;;;;;363072;147;856609;-60
2021/12/26 10:18:54;;;;;;;11.81;5.74;;;;;;;;;;370416;143;857813;-60
2021/12/26 10:20:00;;;;;;;14.81;5.52;;;;;;;;;;372431;142;865371;-59
2021/12/26 10:21:01;;;;;;;8.03;4.39;;;;;;;;;;368826;144;855945;-60
2021/12/26 10:22:03;;;;;;;12.73;5.86;;;;;;;;;;371180;142;857246;-58
2021/12/26 10:23:07;;;;;;;11.57;5.07;;;;;;;;;;371057;144;866565;-58
2021/12/26 10:24:13;;;;;;;9.71;4.49;;;;;;;;;;370210;143;858616;-59
2021/12/26 10:25:15;;;;;;;12.93;4.76;;;;;;;;;;370222;143;857775;-59
2021/12/26 10:26:21;;;;;;;11.61;5.51;;;;;;;;;;366807;144;856559;-59
2021/12/26 10:27:24;;;;;;;6.86;4.08;;;;;;;;;;367209;144;857749;-59
2021/12/26 10:28:25;;;;;;;9.63;4.67;;;;;;;;;;368168;143;856958;-59
2021/12/26 10:29:45;;;;;;;10.19;4.66;;;;;;;;;;367238;143;856562;-57
2021/12/26 10:30:47;;;;;;;6.74;3.54;;;;;;;;;;369150;144;862321;-59
2021/12/26 10:31:50;;;;;;;12.76;4.98;;;;;;;;;;367067;143;856565;-60
2021/12/26 10:32:54;;;;;;;13.91;5.44;;;;;;;;;;367227;144;863969;-60
2021/12/26 10:33:55;;;;;;;9.80;5.22;;;;;;;;;;369051;144;856090;-60
2021/12/26 10:35:01;;;;;;;11.16;5.37;;;;;;;;;;368478;144;856302;-60
2021/12/26 10:36:07;;;;;;;8.77;4.24;;;;;;;;;;367292;143;864418;-60
2021/12/26 10:37:22;;;;;;;11.98;5.41;;;;;;;;;;359277;145;856481;-62
2021/12/26 10:38:24;;;;;;;9.82;4.98;;;;;;;;;;352707;147;857589;-61
2021/12/26 10:39:27;;;;;;;11.99;5.18;;;;;;;;;;359395;147;856200;-61
2021/12/26 10:40:31;;;;;;;10.94;4.95;;;;;;;;;;353003;151;856361;-61
2021/12/26 10:41:32;;;;;;;10.68;5.26;;;;;;;;;;356825;146;856170;-65
2021/12/26 10:44:39;;;;;;;10.16;5.26;;;;;;;-1.99;55.96;99652.63;370759;142;867094;-65
2021/12/26 10:45:40;;;;;;;14.16;4.91;;;;;;;-1.91;56.38;99656.32;363961;145;856461;-65
2021/12/26 10:46:44;;;;;;;10.37;4.50;;;;;;;;;;363695;144;856227;-66
2021/12/26 10:47:47;;;;;;;9.81;4.59;;;;;;;;;;363843;144;856259;-65
2021/12/26 10:48:49;;;;;;;11.27;4.76;;;;;;;;;;362693;145;856169;-64
2021/12/26 10:50:11;;;;;;;12.97;5.24;;;;;;;;;;363479;146;856137;-65
2021/12/26 10:51:14;;;;;;;9.56;4.46;;;;;;;;;;363205;144;856406;-65
2021/12/26 10:52:21;;;;;;;10.31;4.64;;;;;;;;;;360799;147;856131;-65
2021/12/26 10:53:23;;;;;;;10.84;5.22;;;;;;;;;;362717;145;856564;-65
2021/12/26 10:54:31;;;;;;;8.41;5.04;;;;;;;;;;362425;145;857228;-69
2021/12/26 10:55:32;;;;;;;11.57;5.27;;;;;;;;;;362197;145;864013;-69
2021/12/26 10:56:33;;;;;;;9.03;4.41;;;;;;;;;;358885;149;856990;-69
2021/12/26 10:57:39;;;;;;;12.74;5.15;;;;;;;;;;359966;147;863634;-69
2021/12/26 10:58:40;;;;;;;12.41;5.46;;;;;;;;;;363385;144;866761;-69
2021/12/26 10:59:42;;;;;;;12.36;4.91;;;;;;;;;;362437;147;856821;-69
2021/12/26 11:00:45;;;;;;;10.15;4.21;;;;;;;;;;364583;146;863988;-69
2021/12/26 11:01:48;;;;;;;9.37;4.23;;;;;;;;;;363408;144;856664;-69
2021/12/26 11:02:51;;;;;;;9.66;5.13;;;;;;;;;;362859;146;856390;-69
2021/12/26 11:03:54;;;;;;;7.58;4.04;;;;;;;;;;363364;146;856638;-70
2021/12/26 11:05:02;;;;;;;16.42;5.92;;;;;;;;;;361198;145;856588;-69
2021/12/26 11:06:06;;;;;;;7.56;4.16;;;;;;;;;;363063;145;856232;-70
2021/12/26 11:07:12;;;;;;;7.98;4.19;;;;;;;;;;362537;145;856578;-70
2021/12/26 11:08:12;;;;;;;10.04;5.51;;;;;;;;;;362707;145;856795;-70
2021/12/26 11:09:17;;;;;;;11.90;5.47;;;;;;;;;;362692;146;864506;-69
2021/12/26 11:10:20;;;;;;;11.14;4.89;;;;;;;;;;364461;145;856542;-69
2021/12/26 11:11:23;;;;;;;11.23;5.36;;;;;;;;;;362528;146;857388;-70
2021/12/26 11:12:27;;;;;;;9.36;5.67;;;;;;;;;;361939;145;856796;-70
2021/12/26 11:13:29;;;;;;;12.38;5.45;;;;;;;;;;362772;145;857194;-70
2021/12/26 11:14:31;;;;;;;12.09;5.37;;;;;;;;;;362820;146;864024;-70
2021/12/26 11:15:36;;;;;;;11.93;5.21;;;;;;;;;;361680;146;856644;-70
2021/12/26 11:16:39;;;;;;;12.13;5.24;;;;;;;;;;354329;149;863963;-70
2021/12/26 11:17:44;;;;;;;8.55;4.39;;;;;;;;;;356590;147;856273;-70
2021/12/26 11:18:48;;;;;;;13.15;5.48;;;;;;;;;;355717;146;856240;-70
2021/12/26 11:19:49;;;;;;;8.35;4.38;;;;;;;;;;363578;144;856704;-69
2021/12/26 11:20:55;;;;;;;10.09;4.91;;;;;;;;;;363683;145;856224;-70
2021/12/26 11:21:57;;;;;;;13.07;5.31;;;;;;;;;;361819;146;864165;-70
2021/12/26 11:22:59;;;;;;;14.03;5.46;;;;;;;;;;364252;146;856257;-71
2021/12/26 11:24:00;;;;;;;9.16;5.26;;;;;;;;;;361949;145;863892;-69
2021/12/26 11:25:02;;;;;;;9.01;4.53;;;;;;;;;;361646;145;863749;-70
2021/12/26 11:26:05;;;;;;;7.59;3.90;;;;;;;;;;365411;146;864209;-70
2021/12/26 11:27:07;;;;;;;11.05;4.83;;;;;;;;;;362513;145;856163;-70
2021/12/26 11:28:12;;;;;;;10.88;5.46;;;;;;;;;;362701;145;856251;-70
2021/12/26 11:29:13;;;;;;;10.53;5.16;;;;;;;;;;362921;145;865044;-70
2021/12/26 11:30:17;;;;;;;12.76;4.61;;;;;;;;;;362159;146;858846;-70
2021/12/26 11:31:28;;;;;;;6.89;4.11;;;;;;;;;;362499;145;857350;-70
2021/12/26 11:32:31;;;;;;;;;;;;;;;;;;365419;145;857027;-70
2021/12/26 11:33:32;;;;;;;9.94;4.64;;;;;;;;;;365183;145;856077;-70
2021/12/26 11:34:34;;;;;;;10.35;4.56;;;;;;;;;;362961;144;856496;-70
2021/12/26 11:35:37;;;;;;;13.88;5.14;;;;;;;;;;362317;145;863902;-71
2021/12/26 11:36:39;;;;;;;8.79;3.89;;;;;;;;;;363787;145;863978;-70
2021/12/26 11:37:40;;;;;;;12.94;5.26;;;;;;;;;;362109;146;856339;-70
2021/12/26 11:38:42;;;;;;;8.01;3.91;;;;;;;;;;362784;145;864163;-70
2021/12/26 11:39:43;;;;;;;6.90;3.09;;;;;;;;;;361627;145;863876;-70
2021/12/26 11:40:46;;;;;;;6.04;3.09;;;;;;;;;;359227;147;857194;-70
2021/12/26 11:41:52;;;;;;;11.21;5.23;;;;;;;;;;360720;146;863855;-69
2021/12/26 11:43:04;;;;;;;12.99;5.03;;;;;;;;;;362553;145;856843;-70
2021/12/26 11:44:20;;;;;;;7.33;4.08;;;;;;;;;;361998;144;856081;-70
2021/12/26 11:45:33;;;;;;;9.96;4.40;;;;;;;;;;361772;146;856611;-70
2021/12/26 11:46:39;;;;;;;11.81;4.77;;;;;;;;;;363197;144;856445;-70
2021/12/26 11:47:57;;;;;;;12.54;5.07;;;;;;;;;;353589;148;857301;-70
2021/12/26 11:49:06;;;;;;;8.96;4.79;;;;;;;;;;364080;146;856760;-69
2021/12/26 11:50:07;;;;;;;10.23;4.37;;;;;;;;;;361401;144;856156;-70
2021/12/26 11:51:13;;;;;;;8.01;4.34;;;;;;;;;;361360;145;856164;-70
2021/12/26 11:52:20;;;;;;;9.57;4.23;;;;;;;;;;350274;152;856331;-70
2021/12/26 11:53:29;;;;;;;10.40;4.73;;;;;;;;;;361760;145;856719;-70
2021/12/26 11:54:45;;;;;;;6.12;3.13;;;;;;;;;;363121;145;856092;-70
2021/12/26 11:56:00;;;;;;;9.76;3.91;;;;;;;;;;363424;146;856670;-69
2021/12/26 11:57:20;;;;;;;11.04;5.22;;;;;;;;;;362993;144;856155;-70
2021/12/26 11:58:24;;;;;;;11.76;5.04;;;;;;;;;;362493;145;856286;-70
2021/12/26 11:59:47;;;;;;;8.81;4.06;;;;;;;;;;361698;145;856500;-69
2021/12/26 12:00:49;;;;;;;11.90;4.74;;;;;;;;;;362356;144;856821;-70
2021/12/26 12:01:51;;;;;;;10.72;4.69;;;;;;;;;;363618;145;856279;-70
2021/12/26 12:02:53;;;;;;;12.23;4.98;;;;;;;;;;362988;145;864069;-69
2021/12/26 12:04:02;;;;;;;11.70;5.42;;;;;;;;;;364855;145;863971;-70
2021/12/26 12:05:17;;;;;;;10.39;5.10;;;;;;;;;;355220;145;857221;-70
2021/12/26 12:06:22;;;;;;;9.99;4.52;;;;;;;;;;362709;145;856311;-70
2021/12/26 12:07:24;;;;;;;13.55;5.17;;;;;;;;;;363534;146;856941;-69
2021/12/26 12:08:27;;;;;;;11.72;5.20;;;;;;;;;;361727;144;856246;-70
2021/12/26 12:09:36;;;;;;;9.44;5.36;;;;;;;;;;361297;145;864954;-69
2021/12/26 12:10:43;;;;;;;8.36;3.88;;;;;;;;;;354795;148;856517;-69
2021/12/26 12:12:01;;;;;;;10.56;5.13;;;;;;;;;;361775;146;857339;-70
2021/12/26 12:13:04;;;;;;;12.06;5.26;;;;;;;;;;363046;145;856603;-69
2021/12/26 12:14:05;;;;;;;12.11;5.07;;;;;;;;;;362842;145;856554;-69
2021/12/26 12:15:07;;;;;;;12.50;5.06;;;;;;;;;;363992;146;856037;-69
2021/12/26 12:16:09;;;;;;;9.65;5.16;;;;;;;;;;362308;145;863868;-70
2021/12/26 12:17:14;;;;;;;12.94;4.43;;;;;;;;;;362816;146;857286;-69
2021/12/26 12:18:18;;;;;;;7.34;3.91;;;;;;;;;;361819;146;856121;-69
2021/12/26 12:19:19;;;;;;;10.14;3.46;;;;;;;;;;362938;146;856317;-69
2021/12/26 12:20:21;;;;;;;7.52;3.49;;;;;;;;;;363741;146;856443;-70
2021/12/26 12:21:34;;;;;;;8.19;4.16;;;;;;;;;;363082;145;856341;-69
2021/12/26 12:22:36;;;;;;;8.18;4.84;;;;;;;;;;362677;144;857266;-70
2021/12/26 12:23:40;;;;;;;8.37;4.53;;;;;;;;;;365467;145;856610;-69
2021/12/26 12:24:41;;;;;;;9.45;4.96;;;;;;;;;;362868;145;856448;-69
2021/12/26 12:25:49;;;;;;;10.03;5.15;;;;;;;;;;364370;145;856236;-70
2021/12/26 12:26:57;;;;;;;5.15;3.26;;;;;;;;;;361773;145;863889;-69
2021/12/26 12:28:06;;;;;;;9.51;4.64;;;;;;;;;;361998;145;856756;-70
2021/12/26 12:29:08;;;;;;;10.82;5.65;;;;;;;;;;359346;146;857218;-69
2021/12/26 12:30:10;;;;;;;12.10;5.27;;;;;;;;;;362681;146;857359;-69
2021/12/26 12:31:13;;;;;;;10.96;4.89;;;;;;;;;;360973;146;856171;-70
2021/12/26 12:32:16;;;;;;;11.99;5.89;;;;;;;;;;361980;145;860693;-70
2021/12/26 12:33:25;;;;;;;10.63;4.47;;;;;;;;;;364191;145;856393;-69
2021/12/26 12:34:26;;;;;;;10.83;5.05;;;;;;;;;;360567;146;864079;-69
2021/12/26 12:35:29;;;;;;;10.30;5.27;;;;;;;;;;357766;148;856687;-68
2021/12/26 12:36:32;;;;;;;13.54;5.34;;;;;;;;;;357537;148;857184;-70
2021/12/26 12:37:38;;;;;;;5.71;3.45;;;;;;;;;;361488;146;856330;-69
2021/12/26 12:38:44;;;;;;;12.82;5.83;;;;;;;;;;363118;145;856052;-69
2021/12/26 12:39:48;;;;;;;9.93;5.24;;;;;;;;;;362595;145;857280;-70
2021/12/26 12:40:49;;;;;;;12.74;5.38;;;;;;;;;;361433;146;856166;-69
2021/12/26 12:41:52;;;;;;;9.55;5.08;;;;;;;;;;365024;146;856691;-69
2021/12/26 12:43:01;;;;;;;10.64;5.47;;;;;;;;;;364020;144;856521;-69
2021/12/26 12:44:03;;;;;;;13.95;5.39;;;;;;;;;;363786;145;856629;-69
2021/12/26 12:45:05;;;;;;;10.25;5.37;;;;;;;;;;360303;146;856617;-69
2021/12/26 12:46:08;;;;;;;11.00;5.85;;;;;;;;;;357231;147;856191;-69
2021/12/26 12:47:14;;;;;;;12.89;5.84;;;;;;;;;;359219;147;859224;-69
2021/12/26 12:48:26;;;;;;;13.62;5.86;;;;;;;;;;360625;147;856615;-69
2021/12/26 12:49:41;;;;;;;11.77;5.55;;;;;;;;;;355794;149;856785;-69
2021/12/26 12:50:43;;;;;;;11.05;5.44;;;;;;;;;;360293;147;856803;-69
2021/12/26 12:51:44;;;;;;;15.25;5.29;;;;;;;;;;359388;147;856271;-68
2021/12/26 12:52:47;;;;;;;14.08;5.69;;;;;;;;;;360914;149;863989;-68
2021/12/26 12:53:49;;;;;;;8.09;3.75;;;;;;;;;;361039;147;863749;-68
2021/12/26 12:54:50;;;;;;;17.33;6.31;;;;;;;;;;359654;147;856458;-68
2021/12/26 12:55:52;;;;;;;13.92;6.10;;;;;;;;;;358818;149;856117;-69
2021/12/26 12:56:54;;;;;;;11.10;5.19;;;;;;;;;;356816;149;863821;-68
2021/12/26 12:57:56;;;;;;;13.49;5.56;;;;;;;;;;358989;148;863842;-68
2021/12/26 12:59:15;;;;;;;9.47;5.06;;;;;;;;;;358809;147;857648;-68
2021/12/26 13:00:22;;;;;;;10.23;4.43;;;;;;;;;;359584;149;856190;-68
2021/12/26 13:01:25;;;;;;;7.82;4.48;;;;;;;;;;360801;147;856684;-68
2021/12/26 13:02:30;;;;;;;10.58;5.15;;;;;;;;;;359842;147;856090;-68
2021/12/26 13:03:34;;;;;;;11.67;5.36;;;;;;;;;;358563;149;857195;-67
2021/12/26 13:04:43;;;;;;;10.96;5.21;;;;;;;;;;359735;149;856463;-68
2021/12/26 13:05:45;;;;;;;18.75;6.90;;;;;;;;;;359664;147;856739;-67
2021/12/26 13:06:51;;;;;;;13.83;6.62;;;;;;;;;;360482;147;856592;-67
2021/12/26 13:07:56;;;;;;;13.40;5.64;;;;;;;;;;360333;149;856130;-67
2021/12/26 13:08:58;;;;;;;11.75;6.01;;;;;;;;;;356836;149;857222;-67
2021/12/26 13:10:10;;;;;;;12.16;5.99;;;;;;;;;;359188;147;857003;-68
2021/12/26 13:11:09;;;;;;;17.31;7.00;;;;;;;;;;358598;147;863781;-67
2021/12/26 13:12:13;;;;;;;10.76;5.40;;;;;;;;;;357612;149;856727;-67
2021/12/26 13:13:15;;;;;;;12.69;6.22;;;;;;;;;;359402;147;864007;-66
2021/12/26 13:14:35;;;;;;;14.19;7.08;;;;;;;;;;358152;147;856239;-67
2021/12/26 13:15:38;;;;;;;13.59;6.20;;;;;;;;;;359295;149;856619;-67
2021/12/26 13:16:40;;;;;;;12.42;6.04;;;;;;;;;;356631;147;856551;-67
2021/12/26 13:17:42;;;;;;;11.85;5.26;;;;;;;;;;359416;149;856257;-67
2021/12/26 13:18:44;;;;;;;11.77;5.22;;;;;;;;;;358547;149;864024;-66
2021/12/26 13:19:45;;;;;;;10.59;5.69;;;;;;;;;;358461;149;856140;-67
2021/12/26 13:20:54;;;;;;;11.91;6.33;;;;;;;;;;359208;147;864380;-66
2021/12/26 13:21:56;;;;;;;15.04;6.18;;;;;;;;;;358524;147;864009;-66
2021/12/26 13:23:04;;;;;;;14.05;6.17;;;;;;;;;;359409;149;857127;-66
2021/12/26 13:24:04;;;;;;;11.57;5.93;;;;;;;;;;360005;149;856228;-67
2021/12/26 13:25:06;;;;;;;15.71;5.90;;;;;;;;;;358998;147;857112;-67
2021/12/26 13:26:08;;;;;;;14.99;6.64;;;;;;;;;;360393;149;864439;-67
2021/12/26 13:27:10;;;;;;;14.36;5.83;;;;;;;;;;358687;149;856285;-66
2021/12/26 13:28:16;;;;;;;13.58;6.22;;;;;;;;;;360275;147;856237;-66
2021/12/26 13:29:18;;;;;;;17.03;6.26;;;;;;;;;;357959;147;864128;-66
2021/12/26 13:30:23;;;;;;;14.72;6.21;;;;;;;;;;357731;149;856473;-66
2021/12/26 13:31:25;;;;;;;14.43;5.55;;;;;;;;;;359198;147;856313;-66
2021/12/26 13:32:34;;;;;;;13.93;6.87;;;;;;;;;;360490;148;856467;-66
2021/12/26 13:33:36;;;;;;;14.89;6.83;;;;;;;;;;359961;149;857213;-66
2021/12/26 13:34:37;;;;;;;17.63;6.11;;;;;;;;;;360642;149;856854;-66
2021/12/26 13:35:39;;;;;;;15.50;6.20;;;;;;;;;;359193;149;864011;-65
2021/12/26 13:36:40;;;;;;;14.09;6.01;;;;;;;;;;359008;148;856229;-66
2021/12/26 13:37:42;;;;;;;12.99;6.49;;;;;;;;;;356385;149;863993;-65